createdAt,value
2019-05-18T00:01:41.892Z,48.20
2019-05-18T00:04:13.083Z,44.97
2019-05-18T00:06:43.326Z,55.93
2019-05-18T00:09:13.441Z,54.50
2019-05-18T00:11:43.746Z,52.80
2019-05-18T00:14:13.929Z,45.23
2019-05-18T00:16:44.076Z,43.10
2019-05-18T00:19:14.473Z,53.57
2019-05-18T00:21:44.642Z,51.07
2019-05-18T00:24:14.846Z,47.07
2019-05-18T00:26:44.993Z,51.17
2019-05-18T00:29:15.266Z,56.63
2019-05-18T00:31:45.395Z,47.73
2019-05-18T00:34:15.714Z,51.77
2019-05-18T00:36:45.862Z,52.27
2019-05-18T00:39:16.203Z,52.70
2019-05-18T00:41:46.330Z,55.73
2019-05-18T00:44:16.530Z,58.77
2019-05-18T00:46:46.732Z,67.27
2019-05-18T00:49:17.903Z,59.13
2019-05-18T00:51:48.174Z,54.37
2019-05-18T00:54:18.411Z,60.83
2019-05-18T00:56:48.663Z,63.70
2019-05-18T00:59:18.815Z,51.63
2019-05-18T01:01:48.982Z,64.73
2019-05-18T01:04:19.083Z,56.33
2019-05-18T01:06:49.290Z,52.13
2019-05-18T01:09:19.351Z,50.23
2019-05-18T01:11:49.492Z,48.27
2019-05-18T01:14:19.716Z,47.73
2019-05-18T01:16:49.882Z,50.60
2019-05-18T01:19:20.174Z,58.10
2019-05-18T01:21:50.444Z,58.03
2019-05-18T01:24:20.941Z,55.67
2019-05-18T01:26:51.025Z,49.97
2019-05-18T01:29:21.184Z,53.80
2019-05-18T01:31:52.409Z,58.37
2019-05-18T01:34:22.632Z,50.33
2019-05-18T01:36:52.757Z,51.43
2019-05-18T01:39:22.971Z,50.67
2019-05-18T01:41:53.131Z,60.80
2019-05-18T01:44:23.190Z,67.50
2019-05-18T01:46:53.462Z,65.87
2019-05-18T01:49:23.602Z,59.17
2019-05-18T01:51:53.982Z,63.53
2019-05-18T01:54:24.062Z,63.80
2019-05-18T01:56:54.391Z,59.07
2019-05-18T01:59:24.518Z,55.10
2019-05-18T02:01:54.636Z,53.90
2019-05-18T02:04:24.979Z,52.30
2019-05-18T02:06:55.234Z,63.80
2019-05-18T02:09:25.435Z,56.70
2019-05-18T02:11:55.682Z,54.03
2019-05-18T02:14:25.874Z,48.83
2019-05-18T02:16:56.019Z,54.67
2019-05-18T02:19:26.073Z,53.23
2019-05-18T02:21:56.242Z,52.10
2019-05-18T02:24:26.485Z,53.43
2019-05-18T02:26:56.633Z,63.70
2019-05-18T02:29:26.810Z,66.37
2019-05-18T02:31:57.028Z,65.67
2019-05-18T02:34:27.130Z,61.53
2019-05-18T02:36:57.269Z,59.33
2019-05-18T02:39:27.510Z,57.10
2019-05-18T02:41:57.615Z,56.80
2019-05-18T02:44:27.758Z,54.20
2019-05-18T02:46:57.871Z,56.47
2019-05-18T02:49:28.091Z,61.83
2019-05-18T02:51:58.249Z,61.27
2019-05-18T02:54:28.406Z,66.23
2019-05-18T02:56:58.483Z,68.30
2019-05-18T02:59:28.743Z,74.20
2019-05-18T03:01:59.007Z,73.10
2019-05-18T03:04:29.090Z,73.83
2019-05-18T03:06:59.730Z,75.27
2019-05-18T03:09:30.055Z,81.73
2019-05-18T03:12:00.108Z,81.13
2019-05-18T03:14:30.521Z,83.30
2019-05-18T03:17:00.742Z,76.70
2019-05-18T03:19:31.029Z,85.00
2019-05-18T03:22:01.317Z,79.73
2019-05-18T03:24:31.458Z,84.30
2019-05-18T03:27:01.607Z,92.97
2019-05-18T03:29:31.688Z,79.10
2019-05-18T03:32:01.873Z,84.97
2019-05-18T03:34:31.983Z,80.17
2019-05-18T03:37:02.183Z,92.10
2019-05-18T03:39:32.680Z,79.07
2019-05-18T03:42:02.890Z,88.23
2019-05-18T03:44:33.038Z,92.17
2019-05-18T03:47:03.160Z,99.13
2019-05-18T03:49:33.323Z,96.93
2019-05-18T03:52:03.711Z,123.70
2019-05-18T03:54:34.026Z,117.53
2019-05-18T03:57:04.111Z,111.73
2019-05-18T03:59:34.476Z,105.97
2019-05-18T04:02:04.618Z,112.97
2019-05-18T04:04:34.839Z,110.03
2019-05-18T04:07:05.048Z,104.80
2019-05-18T04:09:35.270Z,103.27
2019-05-18T04:12:05.359Z,102.50
2019-05-18T04:14:35.535Z,101.70
2019-05-18T04:17:05.626Z,105.27
2019-05-18T04:19:46.394Z,96.47
2019-05-18T04:22:07.755Z,99.90
2019-05-18T04:24:37.914Z,94.07
2019-05-18T04:27:08.122Z,103.93
2019-05-18T04:29:38.281Z,103.97
2019-05-18T04:32:08.404Z,103.50
2019-05-18T04:34:38.775Z,97.73
2019-05-18T04:37:09.047Z,86.73
2019-05-18T04:39:39.286Z,92.70
2019-05-18T04:42:09.437Z,83.70
2019-05-18T04:44:40.527Z,86.97
2019-05-18T04:47:10.758Z,81.17
2019-05-18T04:49:41.038Z,76.23
2019-05-18T04:52:11.111Z,85.47
2019-05-18T04:54:41.436Z,98.97
2019-05-18T04:57:11.495Z,84.67
2019-05-18T04:59:41.726Z,90.47
2019-05-18T05:02:11.938Z,101.00
2019-05-18T05:04:43.130Z,109.77
2019-05-18T05:07:13.507Z,116.87
2019-05-18T05:09:43.766Z,122.07
2019-05-18T05:12:14.098Z,109.40
2019-05-18T05:14:44.407Z,115.23
2019-05-18T05:17:14.539Z,104.77
2019-05-18T05:19:44.739Z,97.23
2019-05-18T05:22:14.869Z,101.30
2019-05-18T05:24:45.306Z,120.40
2019-05-18T05:27:15.367Z,123.80
2019-05-18T05:29:45.607Z,137.50
2019-05-18T05:32:15.730Z,151.50
2019-05-18T05:34:45.994Z,186.23
2019-05-18T05:37:16.110Z,102.57
2019-05-18T05:39:46.170Z,102.97
2019-05-18T05:42:16.431Z,110.60
2019-05-18T05:44:47.314Z,138.50
2019-05-18T05:47:17.520Z,148.60
2019-05-18T05:49:47.654Z,143.00
2019-05-18T05:52:18.054Z,118.03
2019-05-18T05:54:48.166Z,131.43
2019-05-18T05:57:18.363Z,124.40
2019-05-18T05:59:48.535Z,134.03
2019-05-18T06:02:18.728Z,133.13
2019-05-18T06:04:49.004Z,129.27
2019-05-18T06:07:19.122Z,146.30
2019-05-18T06:09:49.513Z,134.77
2019-05-18T06:12:19.646Z,117.87
2019-05-18T06:14:49.787Z,111.57
2019-05-18T06:17:19.942Z,115.17
2019-05-18T06:19:50.294Z,111.47
2019-05-18T06:22:20.429Z,106.90
2019-05-18T06:24:50.606Z,124.97
2019-05-18T06:27:20.925Z,136.97
2019-05-18T06:29:51.066Z,132.50
2019-05-18T06:32:21.422Z,124.03
2019-05-18T06:34:51.477Z,117.50
2019-05-18T06:37:21.773Z,158.63
2019-05-18T06:39:51.856Z,100.67
2019-05-18T06:42:22.012Z,110.50
2019-05-18T06:44:54.094Z,112.10
2019-05-18T06:47:24.131Z,90.07
2019-05-18T06:49:54.209Z,93.83
2019-05-18T06:52:24.967Z,108.50
2019-05-18T06:54:55.247Z,130.10
2019-05-18T06:57:26.347Z,136.80
2019-05-18T06:59:56.523Z,133.33
2019-05-18T07:02:26.843Z,119.30
2019-05-18T07:04:57.122Z,125.47
2019-05-18T07:07:27.422Z,121.67
2019-05-18T07:09:57.660Z,95.80
2019-05-18T07:12:28.145Z,94.07
2019-05-18T07:15:00.316Z,101.53
2019-05-18T07:17:30.342Z,107.70
2019-05-18T07:20:00.486Z,84.47
2019-05-18T07:22:30.757Z,83.90
2019-05-18T07:25:00.951Z,93.53
2019-05-18T07:27:31.018Z,87.33
2019-05-18T07:30:01.246Z,85.20
2019-05-18T07:32:31.455Z,93.97
2019-05-18T07:35:01.554Z,94.53
2019-05-18T07:37:32.955Z,85.77
2019-05-18T07:40:03.358Z,98.43
2019-05-18T07:42:33.666Z,94.17
2019-05-18T07:45:05.160Z,109.60
2019-05-18T07:47:35.334Z,116.47
2019-05-18T07:50:06.250Z,109.93
2019-05-18T07:52:36.766Z,112.77
2019-05-18T07:55:07.303Z,94.70
2019-05-18T07:57:37.711Z,85.77
2019-05-18T08:00:08.053Z,97.67
2019-05-18T08:02:39.315Z,103.63
2019-05-18T08:05:10.278Z,106.20
2019-05-18T08:07:40.696Z,107.37
2019-05-18T08:10:11.290Z,102.17
2019-05-18T08:12:41.823Z,119.90
2019-05-18T08:15:12.307Z,134.87
2019-05-18T08:17:42.522Z,105.50
2019-05-18T08:20:12.837Z,129.23
2019-05-18T08:22:42.903Z,110.80
2019-05-18T08:25:13.834Z,118.03
2019-05-18T08:27:43.991Z,135.53
2019-05-18T08:30:14.231Z,113.03
2019-05-18T08:32:44.439Z,105.07
2019-05-18T08:35:14.966Z,137.63
2019-05-18T08:37:45.226Z,136.43
2019-05-18T08:40:15.555Z,124.77
2019-05-18T08:42:45.816Z,114.37
2019-05-18T08:45:17.247Z,101.60
2019-05-18T08:47:47.407Z,95.87
2019-05-18T08:50:17.599Z,84.07
2019-05-18T08:52:47.756Z,91.40
2019-05-18T08:55:18.066Z,69.87
2019-05-18T08:57:48.282Z,73.50
2019-05-18T09:00:19.633Z,96.23
2019-05-18T09:02:49.857Z,99.77
2019-05-18T09:05:20.075Z,85.03
2019-05-18T09:07:50.269Z,108.93
2019-05-18T09:10:20.543Z,122.47
2019-05-18T09:12:50.734Z,126.63
2019-05-18T09:15:20.920Z,117.90
2019-05-18T09:17:51.210Z,120.53
2019-05-18T09:20:21.687Z,81.63
2019-05-18T09:22:51.926Z,63.20
2019-05-18T09:25:22.103Z,58.63
2019-05-18T09:27:52.375Z,41.23
2019-05-18T09:30:22.774Z,42.70
2019-05-18T09:32:52.901Z,34.20
2019-05-18T09:35:23.088Z,32.57
2019-05-18T09:37:54.341Z,27.33
2019-05-18T09:40:24.529Z,31.50
2019-05-18T09:42:54.663Z,28.63
2019-05-18T09:45:25.976Z,21.83
2019-05-18T09:47:56.234Z,23.33
2019-05-18T09:50:26.355Z,22.30
2019-05-18T09:52:56.654Z,20.70
2019-05-18T09:55:27.602Z,25.10
2019-05-18T09:57:57.947Z,20.10
2019-05-18T10:00:28.144Z,22.10
2019-05-18T10:02:58.435Z,17.00
2019-05-18T10:05:28.707Z,18.87
2019-05-18T10:07:58.923Z,15.60
2019-05-18T10:10:29.002Z,22.40
2019-05-18T10:12:59.098Z,20.03
2019-05-18T10:15:29.173Z,21.23
2019-05-18T10:17:59.326Z,15.57
2019-05-18T10:20:29.531Z,16.33
2019-05-18T10:23:12.542Z,18.93
2019-05-18T10:25:31.698Z,14.63
2019-05-18T10:28:01.951Z,15.30
2019-05-18T10:30:32.286Z,10.73
2019-05-18T10:33:02.519Z,19.37
2019-05-18T10:35:32.825Z,23.13
2019-05-18T10:38:03.151Z,13.70
2019-05-18T10:40:33.263Z,15.13
2019-05-18T10:43:03.427Z,15.30
2019-05-18T10:45:34.454Z,15.47
2019-05-18T10:48:04.723Z,16.87
2019-05-18T10:50:34.867Z,15.90
2019-05-18T10:53:05.054Z,14.77
2019-05-18T10:55:35.265Z,14.87
2019-05-18T10:58:05.611Z,20.40
2019-05-18T11:00:36.065Z,16.73
2019-05-18T11:03:06.250Z,14.60
2019-05-18T11:05:36.417Z,12.07
2019-05-18T11:08:06.512Z,12.17
2019-05-18T11:10:36.720Z,14.97
2019-05-18T11:13:07.206Z,13.60
2019-05-18T11:15:37.504Z,12.73
2019-05-18T11:18:07.697Z,13.23
2019-05-18T11:20:37.890Z,14.90
2019-05-18T11:23:08.016Z,13.47
2019-05-18T11:25:38.129Z,13.63
2019-05-18T11:28:08.303Z,13.53
2019-05-18T11:30:38.650Z,13.23
2019-05-18T11:33:08.798Z,12.90
2019-05-18T11:35:39.123Z,10.77
2019-05-18T11:38:09.433Z,11.47
2019-05-18T11:40:39.695Z,12.03
2019-05-18T11:43:09.958Z,13.07
2019-05-18T11:45:41.114Z,18.43
2019-05-18T11:48:11.250Z,13.60
2019-05-18T11:50:41.412Z,12.60
2019-05-18T11:53:11.582Z,12.23
2019-05-18T11:55:41.757Z,11.57
2019-05-18T11:58:12.008Z,11.53
2019-05-18T12:00:42.442Z,13.73
2019-05-18T12:03:12.761Z,12.60
2019-05-18T12:05:42.927Z,15.43
2019-05-18T12:08:13.067Z,12.83
2019-05-18T12:10:43.198Z,13.27
2019-05-18T12:13:13.517Z,13.83
2019-05-18T12:15:44.465Z,15.63
2019-05-18T12:18:14.750Z,14.27
2019-05-18T12:20:44.932Z,13.93
2019-05-18T12:23:15.142Z,15.13
2019-05-18T12:25:45.305Z,14.77
2019-05-18T12:28:15.572Z,15.67
2019-05-18T12:30:51.944Z,16.80
2019-05-18T12:33:22.156Z,14.80
2019-05-18T12:35:53.328Z,17.73
2019-05-18T12:38:23.594Z,15.10
2019-05-18T12:40:54.489Z,10.57
2019-05-18T12:43:24.684Z,13.80
2019-05-18T12:45:55.730Z,15.70
2019-05-18T12:48:25.891Z,14.83
2019-05-18T12:50:56.031Z,15.83
2019-05-18T12:53:26.156Z,14.53
2019-05-18T12:55:56.301Z,14.77
2019-05-18T12:58:26.666Z,14.17
2019-05-18T13:00:57.034Z,12.03
2019-05-18T13:03:27.268Z,14.40
2019-05-18T13:05:59.474Z,12.67
2019-05-18T13:08:29.639Z,13.57
2019-05-18T13:10:59.764Z,18.40
2019-05-18T13:13:30.124Z,11.47
2019-05-18T13:16:00.462Z,11.33
2019-05-18T13:18:30.554Z,13.63
2019-05-18T13:21:00.812Z,11.73
2019-05-18T13:23:31.053Z,11.03
2019-05-18T13:26:01.290Z,11.20
2019-05-18T13:28:31.498Z,12.53
2019-05-18T13:31:01.806Z,12.17
2019-05-18T13:33:31.951Z,14.03
2019-05-18T13:36:02.178Z,11.47
2019-05-18T13:38:32.500Z,13.07
2019-05-18T13:41:02.677Z,10.70
2019-05-18T13:43:32.825Z,9.53
2019-05-18T13:46:03.887Z,11.13
2019-05-18T13:48:34.160Z,10.20
2019-05-18T13:51:04.286Z,12.13
2019-05-18T13:53:34.414Z,11.67
2019-05-18T13:56:04.482Z,13.47
2019-05-18T13:58:34.685Z,10.07
2019-05-18T14:01:04.946Z,13.87
2019-05-18T14:03:35.217Z,12.60
2019-05-18T14:06:05.418Z,11.77
2019-05-18T14:08:35.536Z,11.50
2019-05-18T14:11:05.751Z,12.00
2019-05-18T14:13:35.989Z,9.90
2019-05-18T14:16:06.140Z,12.63
2019-05-18T14:18:36.338Z,11.10
2019-05-18T14:21:06.624Z,11.53
2019-05-18T14:23:36.801Z,10.53
2019-05-18T14:26:06.983Z,11.93
2019-05-18T14:28:37.295Z,9.53
2019-05-18T14:31:07.525Z,12.87
2019-05-18T14:33:37.665Z,13.00
2019-05-18T14:36:07.803Z,13.07
2019-05-18T14:38:37.986Z,9.90
2019-05-18T14:41:08.195Z,12.53
2019-05-18T14:43:38.396Z,10.40
2019-05-18T14:46:09.450Z,12.17
2019-05-18T14:48:39.907Z,11.83
2019-05-18T14:51:10.154Z,9.13
2019-05-18T14:53:40.398Z,12.40
2019-05-18T14:56:10.606Z,11.13
2019-05-18T14:58:40.767Z,8.20
2019-05-18T15:01:10.982Z,8.10
2019-05-18T15:03:42.182Z,13.17
2019-05-18T15:06:14.283Z,8.83
2019-05-18T15:08:45.594Z,9.43
2019-05-18T15:11:15.655Z,7.60
2019-05-18T15:13:45.702Z,11.17
2019-05-18T15:16:15.870Z,11.57
2019-05-18T15:18:46.166Z,12.13
2019-05-18T15:21:16.350Z,11.23
2019-05-18T15:23:46.514Z,8.60
2019-05-18T15:26:16.787Z,7.73
2019-05-18T15:28:47.002Z,10.53
2019-05-18T15:31:17.161Z,9.20
2019-05-18T15:33:47.252Z,9.03
2019-05-18T15:36:17.538Z,9.33
2019-05-18T15:38:47.772Z,6.17
2019-05-18T15:41:17.962Z,7.00
2019-05-18T15:43:48.070Z,6.53
2019-05-18T15:46:19.191Z,7.67
2019-05-18T15:48:49.487Z,12.33
2019-05-18T15:51:19.722Z,9.43
2019-05-18T15:53:49.834Z,9.47
2019-05-18T15:56:20.424Z,11.10
2019-05-18T15:58:50.472Z,14.27
2019-05-18T16:01:20.778Z,6.03
2019-05-18T16:03:51.086Z,6.33
2019-05-18T16:06:21.221Z,8.37
2019-05-18T16:08:51.357Z,7.23
2019-05-18T16:11:22.604Z,8.07
2019-05-18T16:13:52.757Z,8.20
2019-05-18T16:16:23.063Z,7.77
2019-05-18T16:18:53.242Z,9.67
2019-05-18T16:21:23.486Z,8.77
2019-05-18T16:23:53.614Z,10.07
2019-05-18T16:26:23.962Z,7.17
2019-05-18T16:28:54.047Z,9.13
2019-05-18T16:31:24.319Z,11.03
2019-05-18T16:33:54.425Z,9.00
2019-05-18T16:36:24.606Z,7.40
2019-05-18T16:38:54.918Z,9.17
2019-05-18T16:41:25.294Z,10.37
2019-05-18T16:43:55.730Z,10.70
2019-05-18T16:46:26.756Z,9.13
2019-05-18T16:48:56.867Z,8.33
2019-05-18T16:51:27.310Z,10.80
2019-05-18T16:53:57.391Z,9.30
2019-05-18T16:56:34.809Z,9.47
2019-05-18T16:58:59.474Z,10.67
2019-05-18T17:01:29.773Z,11.03
2019-05-18T17:04:00.063Z,9.20
2019-05-18T17:06:30.247Z,8.30
2019-05-18T17:09:00.440Z,13.03
2019-05-18T17:11:31.785Z,9.03
2019-05-18T17:14:02.199Z,11.13
2019-05-18T17:16:32.647Z,8.83
2019-05-18T17:19:02.890Z,12.20
2019-05-18T17:21:33.119Z,10.23
2019-05-18T17:24:03.346Z,10.47
2019-05-18T17:26:33.629Z,11.20
2019-05-18T17:29:03.848Z,9.47
2019-05-18T17:31:34.026Z,11.73
2019-05-18T17:34:04.290Z,8.07
2019-05-18T17:36:34.565Z,13.30
2019-05-18T17:39:06.707Z,10.93
2019-05-18T17:41:36.894Z,11.17
2019-05-18T17:44:07.218Z,11.50
2019-05-18T17:46:38.308Z,10.67
2019-05-18T17:49:24.599Z,9.63
2019-05-18T17:51:40.418Z,10.97
2019-05-18T17:54:10.563Z,11.73
2019-05-18T17:56:40.767Z,13.10
2019-05-18T17:59:11.194Z,10.00
2019-05-18T18:01:41.299Z,11.97
2019-05-18T18:04:11.463Z,9.80
2019-05-18T18:06:41.694Z,13.90
2019-05-18T18:09:11.907Z,13.77
2019-05-18T18:11:42.169Z,13.57
2019-05-18T18:14:12.502Z,10.60
2019-05-18T18:16:43.705Z,12.90
2019-05-18T18:19:14.063Z,15.37
2019-05-18T18:21:44.374Z,12.17
2019-05-18T18:24:14.557Z,12.70
2019-05-18T18:26:44.843Z,13.43
2019-05-18T18:29:15.188Z,13.17
2019-05-18T18:31:45.481Z,14.17
2019-05-18T18:34:15.807Z,16.63
2019-05-18T18:36:46.035Z,14.90
2019-05-18T18:39:16.335Z,20.27
2019-05-18T18:41:46.669Z,19.53
2019-05-18T18:44:17.075Z,20.10
2019-05-18T18:46:49.239Z,18.23
2019-05-18T18:49:19.508Z,18.33
2019-05-18T18:51:49.867Z,22.50
2019-05-18T18:54:20.150Z,18.97
2019-05-18T18:56:50.373Z,24.97
2019-05-18T18:59:20.603Z,25.07
2019-05-18T19:01:50.842Z,24.33
2019-05-18T19:04:21.120Z,26.93
2019-05-18T19:06:51.803Z,22.37
2019-05-18T19:09:22.219Z,25.97
2019-05-18T19:11:53.002Z,27.27
2019-05-18T19:14:25.511Z,24.63
2019-05-18T19:16:56.016Z,23.83
2019-05-18T19:19:26.319Z,27.90
2019-05-18T19:21:56.607Z,27.97
2019-05-18T19:24:26.828Z,26.07
2019-05-18T19:26:57.114Z,26.70
2019-05-18T19:29:27.432Z,24.97
2019-05-18T19:31:57.657Z,24.87
2019-05-18T19:34:27.979Z,21.60
2019-05-18T19:36:58.311Z,22.67
2019-05-18T19:39:28.717Z,25.10
2019-05-18T19:41:58.982Z,26.00
2019-05-18T19:44:30.272Z,24.10
2019-05-18T19:47:01.490Z,22.73
2019-05-18T19:49:31.745Z,25.07
2019-05-18T19:52:02.019Z,24.40
2019-05-18T19:54:32.157Z,25.40
2019-05-18T19:57:02.606Z,25.33
2019-05-18T19:59:32.863Z,21.20
2019-05-18T20:02:03.108Z,24.53
2019-05-18T20:04:33.547Z,28.93
2019-05-18T20:07:03.704Z,23.60
2019-05-18T20:09:34.071Z,25.10
2019-05-18T20:12:04.250Z,24.50
2019-05-18T20:14:34.563Z,27.33
2019-05-18T20:17:04.906Z,26.20
2019-05-18T20:19:39.222Z,23.73
2019-05-18T20:22:07.035Z,23.40
2019-05-18T20:24:37.264Z,22.43
2019-05-18T20:27:07.527Z,23.70
2019-05-18T20:29:37.754Z,25.80
2019-05-18T20:32:08.117Z,25.40
2019-05-18T20:34:38.550Z,21.23
2019-05-18T20:37:08.762Z,26.57
2019-05-18T20:39:39.168Z,24.97
2019-05-18T20:42:09.658Z,25.43
2019-05-18T20:44:40.076Z,25.90
2019-05-18T20:47:12.954Z,26.63
2019-05-18T20:49:43.718Z,29.20
2019-05-18T20:52:14.255Z,30.60
2019-05-18T20:54:44.678Z,32.90
2019-05-18T20:57:15.222Z,32.40
2019-05-18T20:59:45.599Z,38.17
2019-05-18T21:02:16.175Z,37.17
2019-05-18T21:04:46.922Z,35.73
2019-05-18T21:07:17.277Z,39.90
2019-05-18T21:09:47.715Z,46.30
2019-05-18T21:12:17.956Z,37.90
2019-05-18T21:14:48.215Z,35.43
2019-05-18T21:17:18.504Z,42.60
2019-05-18T21:19:48.731Z,39.57
2019-05-18T21:22:20.022Z,39.17
2019-05-18T21:24:50.209Z,38.97
2019-05-18T21:27:20.442Z,39.00
2019-05-18T21:29:50.702Z,37.27
2019-05-18T21:32:20.854Z,48.87
2019-05-18T21:34:51.085Z,39.97
2019-05-18T21:37:21.397Z,38.90
2019-05-18T21:39:51.718Z,36.27
2019-05-18T21:42:22.083Z,39.20
2019-05-18T21:44:52.284Z,37.03
2019-05-18T21:47:22.541Z,36.20
2019-05-18T21:49:52.729Z,36.00
2019-05-18T21:52:22.906Z,34.00
2019-05-18T21:54:53.001Z,33.63
2019-05-18T21:57:23.259Z,38.47
2019-05-18T21:59:53.351Z,35.93
2019-05-18T22:02:23.599Z,36.37
2019-05-18T22:04:53.822Z,36.37
2019-05-18T22:07:24.015Z,38.70
2019-05-18T22:09:54.096Z,41.37
2019-05-18T22:12:25.300Z,35.53
2019-05-18T22:14:55.753Z,41.93
2019-05-18T22:17:25.905Z,45.67
2019-05-18T22:19:56.055Z,37.13
2019-05-18T22:22:26.269Z,38.23
2019-05-18T22:24:56.402Z,35.90
2019-05-18T22:27:26.626Z,36.33
2019-05-18T22:29:56.879Z,31.67
2019-05-18T22:32:27.082Z,33.87
2019-05-18T22:34:57.287Z,31.73
2019-05-18T22:37:27.402Z,31.73
2019-05-18T22:39:57.643Z,32.03
2019-05-18T22:42:27.838Z,33.63
2019-05-18T22:44:57.966Z,37.07
2019-05-18T22:47:29.036Z,29.67
2019-05-18T22:49:59.203Z,27.27
2019-05-18T22:52:29.383Z,34.20
2019-05-18T22:54:59.638Z,28.10
2019-05-18T22:57:29.888Z,28.77
2019-05-18T22:59:59.943Z,27.10
2019-05-18T23:02:30.144Z,26.20
2019-05-18T23:05:00.364Z,23.03
2019-05-18T23:07:30.533Z,24.67
2019-05-18T23:10:00.781Z,24.47
2019-05-18T23:12:31.074Z,23.23
2019-05-18T23:15:01.291Z,25.67
2019-05-18T23:17:31.559Z,25.67
2019-05-18T23:20:02.093Z,21.13
2019-05-18T23:22:32.465Z,23.77
2019-05-18T23:25:02.595Z,22.80
2019-05-18T23:27:32.835Z,26.00
2019-05-18T23:30:03.111Z,23.50
2019-05-18T23:32:33.647Z,28.43
2019-05-18T23:35:03.961Z,23.20
2019-05-18T23:37:34.191Z,25.73
2019-05-18T23:40:05.618Z,22.17
2019-05-18T23:42:36.027Z,20.40
2019-05-18T23:45:06.367Z,20.40
2019-05-18T23:47:37.505Z,21.37
2019-05-18T23:50:07.812Z,20.47
2019-05-18T23:52:38.019Z,22.37
2019-05-18T23:55:08.719Z,19.10
2019-05-18T23:57:38.857Z,20.63
